Time;durP1;ratioP1;P1;durP2;ratioP2;P2;SDS_P1;SDS_P2;PMS_P1;PMS_P2;Temp;Humidity;BMP_temperature;BMP_pressure;BME280_temperature;BME280_humidity;BME280_pressure;Samples;Min_cycle;Max_cycle;Signal;HPM_P1;HPM_P2
2022/04/20 00:01:12;;;;;;;2.63;2.30;;;231.00;2252.80;;;;;;5032977;28;20029;-56
2022/04/20 00:03:40;;;;;;;4.55;1.90;;;231.10;2252.80;;;;;;5032942;28;20033;-56
2022/04/20 00:06:06;;;;;;;4.80;2.67;;;231.00;2252.80;;;;;;5033147;28;20053;-55
2022/04/20 00:08:32;;;;;;;5.63;1.85;;;231.10;2252.80;;;;;;5031590;28;20053;-56
2022/04/20 00:10:59;;;;;;;4.50;2.42;;;231.10;2252.80;;;;;;5032916;28;20026;-56
2022/04/20 00:13:25;;;;;;;1.88;1.48;;;231.10;2252.80;;;;;;5032801;28;20064;-57
2022/04/20 00:15:50;;;;;;;3.03;2.15;;;231.20;2252.80;;;;;;5032778;28;20029;-56
2022/04/20 00:18:16;;;;;;;3.40;2.42;;;231.20;2252.80;;;;;;5032793;28;20037;-56
2022/04/20 00:20:42;;;;;;;3.03;1.90;;;231.30;2252.80;;;;;;5032466;28;20479;-56
2022/04/20 00:23:08;;;;;;;1.80;1.13;;;256.10;2252.80;;;;;;5032509;28;20033;-56
2022/04/20 00:25:34;;;;;;;3.92;1.88;;;256.30;2252.80;;;;;;5032692;28;20029;-55
2022/04/20 00:28:00;;;;;;;4.88;2.33;;;256.40;2252.80;;;;;;5032642;28;20021;-57
2022/04/20 00:30:26;;;;;;;3.22;2.10;;;256.50;2252.80;;;;;;5032695;28;20037;-56
2022/04/20 00:32:52;;;;;;;1.48;1.17;;;256.50;2252.80;;;;;;5032038;28;20468;-56
2022/04/20 00:35:17;;;;;;;3.33;1.80;;;256.50;2252.80;;;;;;5032245;28;20084;-56
2022/04/20 00:37:43;;;;;;;2.40;1.60;;;256.50;2252.80;;;;;;5032103;28;20044;-56
2022/04/20 00:40:11;;;;;;;3.15;1.83;;;256.40;2252.80;;;;;;5032050;28;20443;-55
2022/04/20 00:42:40;;;;;;;2.10;1.75;;;256.10;2252.80;;;;;;5032357;28;20029;-56
2022/04/20 00:45:09;;;;;;;4.10;2.42;;;231.10;2252.80;;;;;;5032320;28;20052;-57
2022/04/20 00:47:41;;;;;;;6.60;2.65;;;230.90;2252.80;;;;;;5032343;28;20129;-55
2022/04/20 00:50:07;;;;;;;4.78;2.33;;;230.90;2252.80;;;;;;5032279;28;20022;-56
2022/04/20 00:52:33;;;;;;;4.20;2.80;;;230.80;2252.80;;;;;;5031734;28;20025;-56
2022/04/20 00:54:59;;;;;;;5.07;2.20;;;230.80;2252.80;;;;;;5031937;28;20080;-56
2022/04/20 00:57:25;;;;;;;2.50;2.20;;;230.70;2252.80;;;;;;5031882;28;20116;-56
2022/04/20 00:59:55;;;;;;;2.35;1.33;;;230.70;2252.80;;;;;;5031980;28;20026;-56
2022/04/20 01:02:21;;;;;;;3.85;2.30;;;230.80;2252.80;;;;;;5031525;28;20030;-56
2022/04/20 01:04:47;;;;;;;2.83;1.77;;;230.80;2252.80;;;;;;5031841;28;20026;-56
2022/04/20 01:07:14;;;;;;;2.03;1.48;;;230.80;2252.80;;;;;;5031566;28;20033;-55
2022/04/20 01:09:44;;;;;;;5.43;2.92;;;230.80;2252.80;;;;;;5031906;28;20064;-56
2022/04/20 01:12:13;;;;;;;3.50;2.00;;;230.80;2252.80;;;;;;5031704;28;20547;-55
2022/04/20 01:14:39;;;;;;;3.85;1.85;;;230.80;2252.80;;;;;;5031604;28;20025;-56
2022/04/20 01:17:05;;;;;;;2.92;1.65;;;230.60;2252.80;;;;;;5031508;28;20068;-56
2022/04/20 01:19:35;;;;;;;3.53;2.20;;;230.50;2252.80;;;;;;5031129;28;20065;-56
2022/04/20 01:22:01;;;;;;;2.90;1.73;;;230.50;2252.80;;;;;;5031135;28;20480;-56
2022/04/20 01:24:27;;;;;;;4.32;2.30;;;230.50;2252.80;;;;;;5031565;28;20021;-55
2022/04/20 01:26:53;;;;;;;2.67;1.92;;;230.60;2252.80;;;;;;5031396;28;20029;-55
2022/04/20 01:29:20;;;;;;;2.47;1.48;;;230.80;2252.80;;;;;;5031532;28;20380;-58
2022/04/20 01:31:45;;;;;;;1.80;1.30;;;230.80;2252.80;;;;;;5031404;28;20079;-55
2022/04/20 01:34:11;;;;;;;3.22;1.50;;;230.90;2252.80;;;;;;5030712;28;20045;-56
2022/04/20 01:36:37;;;;;;;2.97;2.00;;;230.90;2252.80;;;;;;5031019;28;20052;-56
2022/04/20 01:39:03;;;;;;;2.90;2.15;;;230.90;2252.80;;;;;;5030971;28;20091;-55
2022/04/20 01:41:28;;;;;;;3.35;2.30;;;230.90;2252.80;;;;;;5031143;28;20053;-56
2022/04/20 01:43:54;;;;;;;3.28;2.08;;;230.80;2252.80;;;;;;5031252;28;20029;-54
2022/04/20 01:46:20;;;;;;;6.30;2.17;;;230.70;2252.80;;;;;;5031008;28;20036;-54
2022/04/20 01:48:45;;;;;;;3.17;1.98;;;230.60;2252.80;;;;;;5030862;28;20022;-54
2022/04/20 01:53:55;;;;;;;2.83;2.13;;;230.60;2252.80;;;;;;5030961;28;20392;-54
2022/04/20 01:56:21;;;;;;;3.33;2.28;;;230.80;2252.80;;;;;;5030570;28;20029;-54
2022/04/20 01:58:47;;;;;;;6.90;2.65;;;230.60;2252.80;;;;;;5030957;28;20029;-53
2022/04/20 02:03:57;;;;;;;6.00;2.63;;;205.70;2252.80;;;;;;5030690;28;20056;-56
2022/04/20 02:06:22;;;;;;;2.83;1.88;;;205.60;2252.80;;;;;;5030703;28;20033;-55
2022/04/20 02:08:48;;;;;;;5.22;2.45;;;205.60;2252.80;;;;;;5030813;28;20482;-56
2022/04/20 02:11:14;;;;;;;3.85;1.92;;;205.50;2252.80;;;;;;5030771;28;20112;-57
2022/04/20 02:13:40;;;;;;;2.88;1.92;;;205.50;2252.80;;;;;;5030488;28;20053;-56
2022/04/20 02:16:06;;;;;;;4.72;2.85;;;205.50;2252.80;;;;;;5030530;28;20052;-58
2022/04/20 02:18:32;;;;;;;4.05;2.00;;;205.50;2252.80;;;;;;5030151;28;20416;-57
2022/04/20 02:20:57;;;;;;;2.70;2.03;;;205.70;2252.80;;;;;;5030444;28;20071;-57
2022/04/20 02:23:23;;;;;;;3.28;2.20;;;205.70;2252.80;;;;;;5030195;28;20036;-55
2022/04/20 02:25:49;;;;;;;4.35;2.45;;;205.70;2252.80;;;;;;5030383;28;20022;-56
2022/04/20 02:28:14;;;;;;;2.10;1.45;;;205.70;2252.80;;;;;;5030449;28;20037;-54
2022/04/20 02:30:40;;;;;;;3.25;2.25;;;230.40;2252.80;;;;;;5030245;28;20745;-54
2022/04/20 02:33:06;;;;;;;4.40;2.22;;;205.70;2252.80;;;;;;5029524;28;20667;-54
2022/04/20 02:35:32;;;;;;;6.35;2.28;;;205.70;2252.80;;;;;;5029897;28;20484;-54
2022/04/20 02:37:59;;;;;;;3.83;2.38;;;205.70;2252.80;;;;;;5030226;28;20037;-55
2022/04/20 02:40:25;;;;;;;4.07;2.42;;;230.40;2252.80;;;;;;5030248;28;20464;-54
2022/04/20 02:42:51;;;;;;;3.88;2.47;;;205.70;2252.80;;;;;;5030125;28;20033;-55
2022/04/20 02:45:17;;;;;;;4.20;2.47;;;205.70;2252.80;;;;;;5030327;28;20501;-53
2022/04/20 02:47:43;;;;;;;6.05;4.50;;;205.70;2252.80;;;;;;5029932;28;20044;-54
2022/04/20 02:50:09;;;;;;;2.78;1.77;;;205.70;2252.80;;;;;;5030237;28;20602;-56
2022/04/20 02:52:35;;;;;;;3.42;2.38;;;230.50;2252.80;;;;;;5030205;28;20356;-54
2022/04/20 02:55:00;;;;;;;4.78;2.53;;;230.50;2252.80;;;;;;5029916;28;20187;-54
2022/04/20 02:57:26;;;;;;;4.38;2.30;;;230.60;2252.80;;;;;;5030142;28;20064;-55
2022/04/20 02:59:52;;;;;;;3.60;2.95;;;230.60;2252.80;;;;;;5030003;28;20053;-54
2022/04/20 03:02:18;;;;;;;3.47;1.98;;;230.60;2252.80;;;;;;5030126;28;20040;-54
2022/04/20 03:04:44;;;;;;;2.78;1.85;;;230.50;2252.80;;;;;;5029629;28;20110;-54
2022/04/20 03:07:09;;;;;;;3.17;2.00;;;230.60;2252.80;;;;;;5029772;28;20037;-54
2022/04/20 03:09:35;;;;;;;3.10;1.98;;;230.60;2252.80;;;;;;5029964;28;20408;-54
2022/04/20 03:12:01;;;;;;;3.58;1.55;;;230.40;2252.80;;;;;;5029831;28;20133;-54
2022/04/20 03:14:27;;;;;;;3.90;2.28;;;230.60;2252.80;;;;;;5030114;28;20029;-53
2022/04/20 03:16:52;;;;;;;3.72;2.15;;;230.50;2252.80;;;;;;5029639;28;20124;-54
2022/04/20 03:19:18;;;;;;;3.50;1.90;;;230.50;2252.80;;;;;;5030031;28;20048;-54
2022/04/20 03:21:44;;;;;;;7.90;2.95;;;230.50;2252.80;;;;;;5029652;28;20413;-54
2022/04/20 03:24:09;;;;;;;3.15;1.92;;;230.40;2252.80;;;;;;5029518;28;20033;-55
2022/04/20 03:26:35;;;;;;;4.68;1.98;;;230.50;2252.80;;;;;;5029770;28;20037;-54
2022/04/20 03:29:01;;;;;;;5.13;2.47;;;230.50;2252.80;;;;;;5029595;28;20022;-54
2022/04/20 03:31:27;;;;;;;3.75;2.15;;;230.40;2252.80;;;;;;5029664;28;20120;-54
2022/04/20 03:33:52;;;;;;;2.55;2.13;;;205.60;2252.80;;;;;;5029181;28;20037;-54
2022/04/20 03:36:18;;;;;;;4.18;2.53;;;205.60;2252.80;;;;;;5029766;28;20056;-55
2022/04/20 03:38:44;;;;;;;3.13;1.90;;;205.40;2252.80;;;;;;5029506;28;20036;-52
2022/04/20 03:41:10;;;;;;;4.38;2.65;;;205.50;2252.80;;;;;;5029775;28;20423;-55
2022/04/20 03:43:35;;;;;;;4.45;2.40;;;205.60;2252.80;;;;;;5031812;28;20025;-54
2022/04/20 03:46:01;;;;;;;4.22;2.45;;;205.70;2252.80;;;;;;5033248;28;20068;-54
2022/04/20 03:48:27;;;;;;;5.70;3.20;;;205.70;2252.80;;;;;;5033409;28;20096;-53
2022/04/20 03:50:53;;;;;;;3.85;2.38;;;230.40;2252.80;;;;;;5033321;28;20084;-53
2022/04/20 03:53:18;;;;;;;2.53;1.67;;;230.40;2252.80;;;;;;5033317;28;20392;-54
2022/04/20 03:55:44;;;;;;;3.22;2.10;;;230.40;2252.80;;;;;;5033227;28;20356;-53
2022/04/20 03:58:10;;;;;;;11.13;5.30;;;205.70;2252.80;;;;;;5033139;28;20115;-54
2022/04/20 04:00:36;;;;;;;5.13;2.58;;;205.50;2252.80;;;;;;5033292;28;20044;-54
2022/04/20 04:03:01;;;;;;;2.53;1.88;;;205.50;2252.80;;;;;;5032655;28;20475;-55
2022/04/20 04:05:27;;;;;;;8.32;5.30;;;205.50;2252.80;;;;;;5033049;28;20033;-54
2022/04/20 04:07:53;;;;;;;3.65;2.35;;;205.40;2252.80;;;;;;5032740;28;20468;-54
2022/04/20 04:10:19;;;;;;;2.80;2.20;;;205.30;2252.80;;;;;;5033175;28;20504;-54
2022/04/20 04:12:45;;;;;;;4.53;3.17;;;205.40;2252.80;;;;;;5032890;28;20026;-53
2022/04/20 04:15:11;;;;;;;5.57;4.25;;;205.60;2252.80;;;;;;5032711;28;20482;-54
2022/04/20 04:17:36;;;;;;;3.13;2.05;;;205.70;2252.80;;;;;;5032660;28;20038;-54
2022/04/20 04:20:04;;;;;;;3.58;2.00;;;205.70;2252.80;;;;;;5031201;28;20027;-53
2022/04/20 04:22:30;;;;;;;4.85;3.15;;;205.70;2252.80;;;;;;5032494;28;20033;-54
2022/04/20 04:24:57;;;;;;;4.22;2.33;;;205.70;2252.80;;;;;;5032996;28;20039;-53
2022/04/20 04:27:23;;;;;;;3.50;1.55;;;205.70;2252.80;;;;;;5032290;28;20060;-54
2022/04/20 04:29:48;;;;;;;3.83;2.60;;;230.40;2252.80;;;;;;5032857;28;20047;-53
2022/04/20 04:32:14;;;;;;;3.88;2.83;;;230.40;2252.80;;;;;;5032432;28;20083;-53
2022/04/20 04:34:40;;;;;;;3.85;2.28;;;205.60;2252.80;;;;;;5031855;28;20484;-53
2022/04/20 04:37:08;;;;;;;4.18;2.33;;;205.60;2252.80;;;;;;5032460;28;20427;-54
2022/04/20 04:39:34;;;;;;;3.25;2.45;;;205.70;2252.80;;;;;;5032000;28;20033;-54
2022/04/20 04:42:01;;;;;;;4.68;2.63;;;205.70;2252.80;;;;;;5032204;28;20030;-55
2022/04/20 04:44:27;;;;;;;3.35;2.55;;;205.70;2252.80;;;;;;5032288;28;20463;-54
2022/04/20 04:49:37;;;;;;;3.53;1.90;;;205.60;2252.80;;;;;;5032135;28;20119;-55
2022/04/20 04:52:06;;;;;;;3.38;1.90;;;205.50;2252.80;;;;;;5031580;28;20487;-56
2022/04/20 04:54:33;;;;;;;3.50;2.58;;;205.70;2252.80;;;;;;5030852;28;20036;-54
2022/04/20 04:56:59;;;;;;;1.95;1.65;;;205.70;2252.80;;;;;;5029029;28;20154;-54
2022/04/20 04:59:25;;;;;;;4.05;2.55;;;205.70;2252.80;;;;;;5031674;28;20041;-54
2022/04/20 05:01:50;;;;;;;2.75;2.15;;;205.60;2252.80;;;;;;5031250;28;20387;-54
2022/04/20 05:04:16;;;;;;;5.07;2.70;;;205.70;2252.80;;;;;;5031715;28;20029;-54
2022/04/20 05:06:43;;;;;;;4.75;3.13;;;205.70;2252.80;;;;;;5031673;28;20120;-54
2022/04/20 05:09:09;;;;;;;3.95;2.33;;;230.40;2252.80;;;;;;5032068;28;20025;-54
2022/04/20 05:11:35;;;;;;;3.50;2.30;;;230.60;2252.80;;;;;;5032105;28;20083;-54
2022/04/20 05:14:00;;;;;;;4.22;2.38;;;230.50;2252.80;;;;;;5031448;28;20033;-58
2022/04/20 05:16:26;;;;;;;4.55;3.17;;;230.50;2252.80;;;;;;5031725;28;20021;-58
2022/04/20 05:18:52;;;;;;;3.58;2.55;;;230.50;2252.80;;;;;;5031366;28;20391;-56
2022/04/20 05:21:18;;;;;;;3.72;2.47;;;230.40;2252.80;;;;;;5031549;28;20052;-57
2022/04/20 05:23:44;;;;;;;8.40;4.63;;;230.40;2252.80;;;;;;5031661;28;20037;-58
2022/04/20 05:26:10;;;;;;;4.65;2.95;;;230.40;2252.80;;;;;;5030177;28;20430;-58
2022/04/20 05:28:35;;;;;;;4.90;3.28;;;230.40;2252.80;;;;;;5031293;28;20022;-57
2022/04/20 05:31:01;;;;;;;6.60;3.55;;;230.40;2252.80;;;;;;5031206;28;20029;-58
2022/04/20 05:33:27;;;;;;;5.63;4.57;;;230.50;2252.80;;;;;;5030748;28;20055;-57
2022/04/20 05:35:53;;;;;;;4.07;2.78;;;230.50;2252.80;;;;;;5030740;28;20476;-58
2022/04/20 05:43:49;;;;;;;4.45;3.45;;;230.60;2252.80;;;;;;5031388;28;20036;-58
2022/04/20 05:46:15;;;;;;;3.35;2.47;;;230.60;2252.80;;;;;;5031220;28;20029;-59
2022/04/20 05:48:41;;;;;;;5.32;3.20;;;230.80;2252.80;;;;;;5030629;28;20037;-60
2022/04/20 05:51:07;;;;;;;4.13;3.05;;;230.70;2252.80;;;;;;5031194;28;20032;-59
2022/04/20 05:53:33;;;;;;;5.70;3.90;;;230.70;2252.80;;;;;;5031091;28;20428;-59
2022/04/20 05:55:59;;;;;;;4.70;3.38;;;230.80;2252.80;;;;;;5031000;28;20119;-58
2022/04/20 05:58:25;;;;;;;5.25;2.90;;;230.90;2252.80;;;;;;5030921;28;20037;-60
2022/04/20 06:00:50;;;;;;;6.85;5.45;;;230.80;2252.80;;;;;;5030915;28;20021;-58
2022/04/20 06:03:16;;;;;;;6.60;4.88;;;230.70;2252.80;;;;;;5030787;28;20426;-57
2022/04/20 06:05:42;;;;;;;4.88;3.78;;;230.60;2252.80;;;;;;5030184;28;20036;-57
2022/04/20 06:08:08;;;;;;;5.25;3.30;;;230.60;2252.80;;;;;;5030406;28;20357;-58
2022/04/20 06:10:34;;;;;;;5.13;4.07;;;230.60;2252.80;;;;;;5030554;28;20037;-57
2022/04/20 06:13:00;;;;;;;5.93;4.10;;;230.60;2252.80;;;;;;5030532;28;20132;-58
2022/04/20 06:15:26;;;;;;;8.30;5.03;;;230.60;2252.80;;;;;;5030657;28;20515;-60
2022/04/20 06:17:51;;;;;;;5.40;3.38;;;230.70;2252.80;;;;;;5030384;28;20047;-59
2022/04/20 06:20:17;;;;;;;5.40;3.97;;;230.70;2252.80;;;;;;5030636;28;20104;-58
2022/04/20 06:22:43;;;;;;;8.15;4.93;;;230.80;2252.80;;;;;;5030271;28;20087;-58
2022/04/20 06:25:09;;;;;;;8.00;4.47;;;230.90;2252.80;;;;;;5030718;28;20025;-59
2022/04/20 06:27:35;;;;;;;6.97;3.70;;;230.90;2252.80;;;;;;5030657;28;20402;-60
2022/04/20 06:30:00;;;;;;;8.73;4.63;;;230.80;2252.80;;;;;;5030195;28;20033;-57
2022/04/20 06:32:27;;;;;;;6.25;3.50;;;230.80;2252.80;;;;;;5030408;28;20025;-59
2022/04/20 06:34:54;;;;;;;7.57;4.63;;;230.60;2252.80;;;;;;5030016;28;20583;-57
2022/04/20 06:37:22;;;;;;;6.15;3.13;;;230.60;2252.80;;;;;;5030464;28;20052;-58
2022/04/20 06:39:49;;;;;;;5.25;3.13;;;230.60;2252.80;;;;;;5030415;28;20379;-60
2022/04/20 06:42:18;;;;;;;5.93;2.70;;;230.60;2252.80;;;;;;5029218;28;20373;-56
2022/04/20 06:44:44;;;;;;;4.68;3.65;;;230.50;2252.80;;;;;;5030016;28;20120;-60
2022/04/20 06:47:10;;;;;;;8.48;3.90;;;230.60;2252.80;;;;;;5028852;28;20155;-58
2022/04/20 06:49:35;;;;;;;13.85;8.57;;;230.60;2252.80;;;;;;5028803;28;20025;-58
2022/04/20 07:00:16;;;;;;;6.20;3.75;;;230.70;2252.80;;;;;;5027147;28;20028;-58
2022/04/20 07:02:42;;;;;;;9.82;4.40;;;230.70;2252.80;;;;;;5028640;28;20088;-56
2022/04/20 07:05:09;;;;;;;9.90;6.43;;;230.70;2252.80;;;;;;5026181;28;20018;-59
2022/04/20 07:07:35;;;;;;;9.00;6.28;;;230.70;2252.80;;;;;;5028694;28;20028;-58
2022/04/20 07:10:04;;;;;;;6.65;4.68;;;230.80;2252.80;;;;;;5028379;28;20071;-59
2022/04/20 07:12:30;;;;;;;6.38;4.38;;;230.80;2252.80;;;;;;5026129;28;20026;-59
2022/04/20 07:14:56;;;;;;;6.70;3.72;;;230.70;2252.80;;;;;;5028527;28;20025;-58
2022/04/20 07:17:22;;;;;;;11.02;4.40;;;230.60;2252.80;;;;;;5028610;28;20029;-57
2022/04/20 07:19:47;;;;;;;4.05;3.17;;;230.70;2252.80;;;;;;5029875;28;20022;-58
2022/04/20 07:22:13;;;;;;;8.07;4.53;;;230.50;2252.80;;;;;;5032277;28;20025;-60
2022/04/20 07:24:39;;;;;;;4.68;3.22;;;230.60;2252.80;;;;;;5032392;28;20483;-57
2022/04/20 07:27:05;;;;;;;6.47;3.38;;;230.60;2252.80;;;;;;5032328;28;20380;-57
2022/04/20 07:29:30;;;;;;;5.18;4.55;;;230.60;2252.80;;;;;;5030735;28;20112;-57
2022/04/20 07:31:56;;;;;;;4.60;3.67;;;230.50;2252.80;;;;;;5032305;28;20013;-60
2022/04/20 07:34:22;;;;;;;4.75;3.22;;;230.60;2252.80;;;;;;5031823;28;20065;-59
2022/04/20 07:36:49;;;;;;;6.82;3.67;;;230.50;2252.80;;;;;;5029526;28;20540;-59
2022/04/20 07:39:15;;;;;;;3.33;2.47;;;230.40;2252.80;;;;;;5032171;28;20040;-56
2022/04/20 07:41:41;;;;;;;5.07;3.50;;;205.60;2252.80;;;;;;5031898;28;20361;-59
2022/04/20 07:44:06;;;;;;;4.50;3.38;;;230.40;2252.80;;;;;;5032002;28;20032;-59
2022/04/20 07:46:32;;;;;;;3.72;2.05;;;230.40;2252.80;;;;;;5031818;28;20357;-58
2022/04/20 07:50:17;;;;;;;5.63;3.20;;;230.40;2252.80;;;;;;5032081;28;20033;-56
2022/04/20 07:51:44;;;;;;;3.22;2.15;;;230.40;2252.80;;;;;;5031013;28;20390;-56
2022/04/20 07:54:09;;;;;;;5.90;3.10;;;230.40;2252.80;;;;;;5031745;28;20033;-55
2022/04/20 07:56:35;;;;;;;3.50;2.33;;;230.50;2252.80;;;;;;5031765;28;20022;-58
2022/04/20 07:59:01;;;;;;;4.57;3.30;;;205.70;2252.80;;;;;;5031502;28;20128;-58
2022/04/20 08:01:26;;;;;;;4.22;2.70;;;205.60;2252.80;;;;;;5030500;28;20034;-59
2022/04/20 08:03:52;;;;;;;5.47;2.00;;;205.60;2252.80;;;;;;5031408;28;20087;-57
2022/04/20 08:06:18;;;;;;;3.38;2.33;;;205.60;2252.80;;;;;;5031684;28;20036;-59
2022/04/20 08:08:44;;;;;;;3.33;2.22;;;205.50;2252.80;;;;;;5030836;28;20067;-58
2022/04/20 08:11:10;;;;;;;2.17;1.25;;;205.70;2252.80;;;;;;5031065;28;20021;-57
2022/04/20 08:16:21;;;;;;;26.13;10.98;;;205.70;2252.80;;;;;;5031367;28;20071;-57
2022/04/20 08:18:46;;;;;;;2.30;1.45;;;230.70;2252.80;;;;;;5031648;28;20450;-60
2022/04/20 08:21:12;;;;;;;15.15;8.50;;;230.80;2252.80;;;;;;5031370;28;20045;-57
2022/04/20 08:23:38;;;;;;;3.90;2.88;;;231.00;2252.80;;;;;;5031442;28;20395;-59
2022/04/20 08:26:04;;;;;;;3.47;2.10;;;231.10;2252.80;;;;;;5031226;28;20030;-61
2022/04/20 08:28:30;;;;;;;4.22;1.77;;;231.10;2252.80;;;;;;5031124;28;20140;-57
2022/04/20 08:30:56;;;;;;;1.67;1.08;;;231.10;2252.80;;;;;;5030385;28;20109;-59
2022/04/20 08:33:22;;;;;;;1.35;1.20;;;230.90;2252.80;;;;;;5031035;28;20108;-61
2022/04/20 08:35:48;;;;;;;2.50;1.17;;;230.80;2252.80;;;;;;5031319;28;20542;-60
2022/04/20 08:38:14;;;;;;;7.25;3.72;;;256.00;2252.80;;;;;;5031102;28;20038;-58
2022/04/20 08:40:42;;;;;;;2.20;1.00;;;230.90;2252.80;;;;;;5031181;28;20026;-59
2022/04/20 08:43:10;;;;;;;2.10;1.20;;;230.90;2252.80;;;;;;5031038;28;20108;-58
2022/04/20 08:45:39;;;;;;;2.00;1.02;;;230.80;2252.80;;;;;;5031248;28;20045;-57
2022/04/20 08:48:06;;;;;;;2.92;1.52;;;231.20;2252.80;;;;;;5030967;28;20035;-57
2022/04/20 08:50:32;;;;;;;0.93;0.60;;;231.00;2252.80;;;;;;5030676;28;20028;-59
2022/04/20 08:52:58;;;;;;;1.05;0.73;;;231.10;2252.80;;;;;;5030949;28;20040;-58
2022/04/20 08:55:24;;;;;;;0.98;0.68;;;231.30;2252.80;;;;;;5030638;28;20034;-57
2022/04/20 08:57:54;;;;;;;1.30;0.77;;;231.30;2252.80;;;;;;5030545;28;20395;-59
2022/04/20 09:00:23;;;;;;;2.83;1.40;;;231.20;2252.80;;;;;;5030870;28;20025;-59
2022/04/20 09:02:52;;;;;;;0.82;0.73;;;256.20;2252.80;;;;;;5030720;28;20030;-56
2022/04/20 09:05:20;;;;;;;3.28;2.03;;;256.00;2252.80;;;;;;5030723;28;20021;-57
2022/04/20 09:07:46;;;;;;;3.05;1.55;;;231.20;2252.80;;;;;;5030510;28;20061;-59
2022/04/20 09:10:12;;;;;;;1.67;1.20;;;256.20;2252.80;;;;;;5030336;28;20045;-57
2022/04/20 09:12:42;;;;;;;2.20;1.35;;;256.40;2252.80;;;;;;5029106;28;20040;-58
2022/04/20 09:15:09;;;;;;;4.60;2.22;;;256.40;2252.80;;;;;;5030464;28;20464;-58
2022/04/20 09:17:56;;;;;;;1.30;0.95;;;256.70;2252.80;;;;;;5030274;28;20076;-57
2022/04/20 09:20:22;;;;;;;1.65;1.08;;;256.90;2252.80;;;;;;5030176;28;20100;-58
2022/04/20 09:23:01;;;;;;;1.08;0.70;;;256.70;2252.80;;;;;;5030318;28;20140;-57
2022/04/20 09:25:50;;;;;;;1.33;1.10;;;256.90;2252.80;;;;;;5028636;28;20017;-57
2022/04/20 09:28:16;;;;;;;1.75;1.15;;;256.90;2252.80;;;;;;4987842;28;20093;-57
2022/04/20 09:30:43;;;;;;;2.05;1.60;;;281.60;2278.40;;;;;;4988353;28;20520;-59
2022/04/20 09:33:10;;;;;;;3.20;2.53;;;256.90;2252.80;;;;;;4988259;28;20030;-59
2022/04/20 09:35:45;;;;;;;3.20;1.33;;;256.80;2252.80;;;;;;4988085;28;20113;-59
2022/04/20 09:38:12;;;;;;;8.02;3.78;;;256.70;2252.80;;;;;;4988159;28;20655;-57
2022/04/20 09:40:38;;;;;;;3.28;1.60;;;256.70;2252.80;;;;;;4989167;28;20457;-59
2022/04/20 09:43:09;;;;;;;1.45;0.70;;;281.70;2278.40;;;;;;4989653;28;20026;-59
2022/04/20 09:45:36;;;;;;;6.00;2.40;;;256.90;2252.80;;;;;;4989012;28;20045;-60
2022/04/20 09:48:52;;;;;;;0.63;0.60;;;256.70;2252.80;;;;;;4989142;28;20050;-58
2022/04/20 09:51:14;;;;;;;3.13;1.35;;;281.60;2278.40;;;;;;4985445;28;20180;-59
2022/04/20 09:53:41;;;;;;;0.63;0.55;;;256.90;2252.80;;;;;;4989222;28;20053;-59
2022/04/20 09:56:24;;;;;;;1.13;1.02;;;256.50;2252.80;;;;;;4989611;28;20030;-58
2022/04/20 09:59:00;;;;;;;1.02;0.93;;;256.20;2252.80;;;;;;4989293;28;20620;-58
2022/04/20 10:01:31;;;;;;;0.65;0.55;;;231.10;2252.80;;;;;;4989331;28;20473;-59
2022/04/20 10:03:57;;;;;;;0.32;0.32;;;256.00;2252.80;;;;;;4989293;28;20065;-59
2022/04/20 10:06:23;;;;;;;0.77;0.77;;;256.60;2252.80;;;;;;5010354;28;20038;-59
2022/04/20 10:08:50;;;;;;;2.47;1.73;;;256.70;2252.80;;;;;;5011437;28;20863;-59
2022/04/20 10:11:16;;;;;;;1.45;1.10;;;256.90;2252.80;;;;;;5011141;28;20022;-59
2022/04/20 10:13:42;;;;;;;0.70;0.63;;;281.60;2278.40;;;;;;5011008;28;20030;-59
2022/04/20 10:16:11;;;;;;;1.77;1.13;;;282.10;2278.40;;;;;;5011268;28;20101;-58
2022/04/20 10:18:39;;;;;;;2.45;1.40;;;282.40;2278.40;;;;;;5010858;28;20045;-60
2022/04/20 10:21:08;;;;;;;1.40;0.95;;;307.30;2304.00;;;;;;5010822;28;20468;-59
2022/04/20 10:23:35;;;;;;;1.58;1.08;;;307.70;2304.00;;;;;;5010680;28;20038;-59
2022/04/20 10:26:07;;;;;;;0.82;0.52;;;307.80;2304.00;;;;;;5010598;28;20026;-59
2022/04/20 10:28:50;;;;;;;1.02;0.77;;;307.20;2304.00;;;;;;5010703;28;20080;-59
2022/04/20 10:31:16;;;;;;;1.27;1.02;;;307.30;2304.00;;;;;;5010830;28;20030;-60
2022/04/20 10:33:43;;;;;;;2.08;1.60;;;282.50;2278.40;;;;;;5010376;28;20034;-60
2022/04/20 10:36:11;;;;;;;0.73;0.52;;;307.30;2304.00;;;;;;5010536;28;20460;-59
2022/04/20 10:38:38;;;;;;;1.88;0.80;;;307.40;2304.00;;;;;;5010410;28;20037;-58
2022/04/20 10:41:17;;;;;;;1.73;1.35;;;282.10;2278.40;;;;;;5010383;28;20037;-60
2022/04/20 10:43:44;;;;;;;2.17;0.82;;;281.70;2278.40;;;;;;5010343;28;20038;-60
2022/04/20 10:46:17;;;;;;;1.95;1.13;;;281.60;2278.40;;;;;;5010407;28;20026;-59
2022/04/20 10:48:52;;;;;;;1.85;1.23;;;256.70;2252.80;;;;;;5010248;28;20022;-59
2022/04/20 10:51:37;;;;;;;3.72;1.70;;;256.70;2252.80;;;;;;5010521;28;20034;-59
2022/04/20 10:54:17;;;;;;;1.15;1.05;;;256.40;2252.80;;;;;;5009797;28;20365;-60
2022/04/20 10:56:50;;;;;;;1.52;1.27;;;256.50;2252.80;;;;;;5010139;28;20520;-60
2022/04/20 10:59:17;;;;;;;1.98;1.20;;;256.80;2252.80;;;;;;5010479;28;20052;-60
2022/04/20 11:01:58;;;;;;;2.22;1.17;;;256.80;2252.80;;;;;;5010078;28;20022;-59
2022/04/20 11:04:46;;;;;;;2.67;1.45;;;281.70;2278.40;;;;;;5010146;28;20034;-60
2022/04/20 11:07:20;;;;;;;3.45;2.40;;;256.70;2252.80;;;;;;5010137;28;20038;-57
2022/04/20 11:09:49;;;;;;;4.35;2.58;;;256.70;2252.80;;;;;;5010463;28;20022;-57
2022/04/20 11:18:38;;;;;;;2.85;1.52;;;256.00;2252.80;;;;;;5010023;28;20045;-57
2022/04/20 11:21:05;;;;;;;2.53;2.00;;;256.00;2252.80;;;;;;5010064;28;20080;-58
2022/04/20 11:23:53;;;;;;;2.53;1.73;;;256.20;2252.80;;;;;;5009696;28;20072;-56
2022/04/20 11:26:20;;;;;;;4.32;3.17;;;256.10;2252.80;;;;;;5027264;28;20447;-56
2022/04/20 11:28:49;;;;;;;5.47;3.40;;;256.00;2252.80;;;;;;5029758;28;20468;-57
2022/04/20 11:31:16;;;;;;;17.20;13.13;;;256.20;2252.80;;;;;;5030025;28;20025;-58
2022/04/20 11:33:42;;;;;;;4.63;2.55;;;256.50;2252.80;;;;;;5029363;28;20025;-58
2022/04/20 11:36:14;;;;;;;4.72;3.53;;;256.40;2252.80;;;;;;5029576;28;20453;-58
2022/04/20 11:38:42;;;;;;;3.38;2.45;;;256.50;2252.80;;;;;;5029444;28;20083;-57
2022/04/20 11:41:12;;;;;;;6.25;3.33;;;256.50;2252.80;;;;;;5029641;28;20030;-57
2022/04/20 11:43:39;;;;;;;11.48;4.80;;;256.50;2252.80;;;;;;5029718;28;20422;-57
2022/04/20 11:46:08;;;;;;;3.70;2.60;;;256.70;2252.80;;;;;;5029597;28;20096;-58
2022/04/20 11:48:38;;;;;;;5.15;3.05;;;256.90;2252.80;;;;;;5029493;28;20052;-58
2022/04/20 11:51:08;;;;;;;3.60;2.70;;;281.60;2278.40;;;;;;5029425;28;20105;-58
2022/04/20 11:53:40;;;;;;;3.13;2.47;;;281.80;2278.40;;;;;;5029366;28;20026;-58
2022/04/20 11:56:15;;;;;;;4.82;2.85;;;282.30;2278.40;;;;;;5029629;28;20065;-59
2022/04/20 11:58:48;;;;;;;4.13;2.83;;;282.30;2278.40;;;;;;5029672;28;20615;-58
2022/04/20 12:01:15;;;;;;;7.50;4.32;;;307.30;2304.00;;;;;;5029620;28;20033;-58
2022/04/20 12:03:42;;;;;;;4.75;2.63;;;307.90;2304.00;;;;;;5029282;28;20066;-58
2022/04/20 12:06:10;;;;;;;5.00;2.95;;;333.00;2329.60;;;;;;5032190;28;20029;-58
2022/04/20 12:08:42;;;;;;;6.78;3.30;;;333.60;2329.60;;;;;;5033141;28;20460;-58
2022/04/20 12:11:10;;;;;;;5.43;3.33;;;333.70;2329.60;;;;;;5033068;28;20127;-58
2022/04/20 12:13:39;;;;;;;5.90;4.03;;;333.40;2329.60;;;;;;5033128;28;20440;-58
2022/04/20 12:16:10;;;;;;;6.13;4.38;;;333.60;2329.60;;;;;;5033026;28;20049;-58
2022/04/20 12:18:45;;;;;;;6.10;3.83;;;333.40;2329.60;;;;;;5032968;28;20033;-57
2022/04/20 12:21:43;;;;;;;7.00;3.75;;;333.60;2329.60;;;;;;5032766;28;20036;-58
2022/04/20 12:24:25;;;;;;;5.15;3.22;;;333.60;2329.60;;;;;;5033013;28;20025;-59
2022/04/20 12:26:52;;;;;;;4.55;2.80;;;358.60;2329.60;;;;;;5032688;28;20045;-58
2022/04/20 12:29:22;;;;;;;4.88;3.55;;;358.70;2329.60;;;;;;5032833;28;20021;-58
2022/04/20 12:31:55;;;;;;;5.70;3.80;;;333.40;2329.60;;;;;;5032697;28;20021;-58
2022/04/20 12:34:25;;;;;;;6.82;3.78;;;333.60;2329.60;;;;;;5032473;28;20403;-57
2022/04/20 12:37:05;;;;;;;6.63;4.05;;;333.70;2329.60;;;;;;5032505;28;20484;-58
2022/04/20 12:39:36;;;;;;;9.95;4.38;;;333.40;2329.60;;;;;;5032335;28;20399;-59
2022/04/20 12:42:09;;;;;;;9.95;5.78;;;333.30;2329.60;;;;;;5032011;28;20032;-58
2022/04/20 12:44:38;;;;;;;;;;;333.60;2329.60;;;;;;5032658;28;20033;-58
2022/04/20 12:47:11;;;;;;;16.48;8.55;;;358.40;2329.60;;;;;;5032300;28;19904;-58
2022/04/20 12:49:44;;;;;;;8.88;6.13;;;358.60;2329.60;;;;;;5032174;28;20475;-58
2022/04/20 12:52:14;;;;;;;8.05;4.00;;;358.70;2329.60;;;;;;5032433;28;20498;-57